Nowy Jork, NY

23:19 EST dnia 22-grudzień-2014 (GMT -0500)
Sutton East | Change Station
CLOSE
Current Station
Stacja PWS
Location: New York, NY
n.p.m.: 79 ft
Najbliższa stacja pogodowa

Wysokość 79 ft 40.76 °N, 73.97 °W | Updated 60 seconds ago

Light Rain
lekki deszcz
45.9 ° F
Odczuwalna 46 ° F
Płn.
0.0
Wiatr zmienny Wiatr od PnPnZd

Dziś
Wysoka -- | Niska -- ° F
--% Prawdop. opadów
Wczoraj
Wysoka -- | Niska -- ° F
Precip. -- cali
7:17 AM 4:32 PM
Nów, 2% visible
Ciśnienie 30.19 cali
Widzialność 6.0 mil
chmury pochmurno 500 ft
czynnik chłodzący wiatru 46 ° F
Punkt rosy Niedostępne.
Wilgotność Niedostępne.
Opady deszczu 0.04 cali
grubość pokrywy śnieżnej Niedostępne.
UV 0 z 12
Pyłki .10 z 12
Jakość powietrza Niedostępne.
Flu Activity Niedostępne.
METAR KNYC 230351Z AUTO 07005KT 6SM -RA BR OVC005 07/05 A3021 RMK AO2 SLP222 P0003 T00670050 $

More Conditions Fewer Conditions

Ciśnienie 30.19 cali
Widzialność 6.0 mil
chmury pochmurno 500 ft
czynnik chłodzący wiatru 46 ° F
Punkt rosy Niedostępne.
Wilgotność Niedostępne.
Opady deszczu 0.04 cali
grubość pokrywy śnieżnej Niedostępne.
UV 0 z 12
Pyłki .10 z 12
Jakość powietrza Niedostępne.
Flu Activity Niedostępne.
METAR KNYC 230351Z AUTO 07005KT 6SM -RA BR OVC005 07/05 A3021 RMK AO2 SLP222 P0003 T00670050 $

More Conditions Fewer Conditions

10-Day Weather Forecast

Almanac

Astronomia

Dec. 22, 2014 Wschód Zachów
Aktualny czas
Zmierzch cywilny
Zmierzch żeglarski
świt/zmierzch astronomiczny
Księżyc
całkowite oświetlenie
Długość dnia
Tomorrow will be .
, % of the Moon is Illuminated

Dzisiejsze ekstrema

State Highs State Lows

Community

WunderPhotos

Upload Photos

1,779,776 zdjęcia zostały przesłane!

WunderBlogs® & News

Nearby

Jakość powietrza

  Jakość powietrza czynnik AQ Zanieczyszczenie
Not available.

Głębokość pokrywy śnieżnej

Station Depth n.p.m.

Aktywność sejsmiczna

Miejscowość Distance Mag. Time & Date
Minimum magnitude displayed is 2.5.

Temperatury wody na wybrzeżu

Miejsce Temperatura

Najbliższa stacja pogodowa